sensor_id;sensor_type;location;lat;lon;timestamp;pressure;altitude;pressure_sealevel;temperature;humidity
44697;BME280;57264;47.480;19.354;2023-09-19T00:01:40;98650.06;;;20.51;66.61
44697;BME280;57264;47.480;19.354;2023-09-19T00:04:07;98654.97;;;20.44;66.91
44697;BME280;57264;47.480;19.354;2023-09-19T00:06:38;98653.72;;;20.37;67.17
44697;BME280;57264;47.480;19.354;2023-09-19T00:09:03;98657.19;;;20.37;67.34
44697;BME280;57264;47.480;19.354;2023-09-19T00:11:29;98656.22;;;20.23;68.02
44697;BME280;57264;47.480;19.354;2023-09-19T00:13:54;98664.16;;;20.28;67.64
44697;BME280;57264;47.480;19.354;2023-09-19T00:16:20;98661.28;;;20.25;68.01
44697;BME280;57264;47.480;19.354;2023-09-19T00:18:45;98657.06;;;20.19;68.19
44697;BME280;57264;47.480;19.354;2023-09-19T00:21:11;98654.69;;;20.17;68.37
44697;BME280;57264;47.480;19.354;2023-09-19T00:23:36;98650.16;;;20.18;68.46
44697;BME280;57264;47.480;19.354;2023-09-19T00:26:02;98653.38;;;20.15;68.56
44697;BME280;57264;47.480;19.354;2023-09-19T00:28:28;98652.34;;;20.10;68.60
44697;BME280;57264;47.480;19.354;2023-09-19T00:30:55;98653.19;;;20.06;69.09
44697;BME280;57264;47.480;19.354;2023-09-19T00:33:20;98649.22;;;20.03;69.18
44697;BME280;57264;47.480;19.354;2023-09-19T00:35:46;98637.72;;;20.08;68.96
44697;BME280;57264;47.480;19.354;2023-09-19T00:38:12;98638.28;;;20.05;68.97
44697;BME280;57264;47.480;19.354;2023-09-19T00:40:46;98635.81;;;20.14;68.73
44697;BME280;57264;47.480;19.354;2023-09-19T00:43:11;98640.94;;;20.05;69.21
44697;BME280;57264;47.480;19.354;2023-09-19T00:45:37;98632.44;;;20.03;69.59
44697;BME280;57264;47.480;19.354;2023-09-19T00:48:07;98637.50;;;20.04;69.15
44697;BME280;57264;47.480;19.354;2023-09-19T00:50:34;98639.69;;;19.97;69.68
44697;BME280;57264;47.480;19.354;2023-09-19T00:53:00;98638.84;;;20.02;69.52
44697;BME280;57264;47.480;19.354;2023-09-19T00:55:25;98640.19;;;19.99;69.88
44697;BME280;57264;47.480;19.354;2023-09-19T00:57:51;98634.69;;;19.91;70.12
44697;BME280;57264;47.480;19.354;2023-09-19T01:00:17;98635.47;;;19.91;70.07
44697;BME280;57264;47.480;19.354;2023-09-19T01:02:45;98638.25;;;19.81;70.56
44697;BME280;57264;47.480;19.354;2023-09-19T01:05:10;98633.44;;;19.78;70.97
44697;BME280;57264;47.480;19.354;2023-09-19T01:07:36;98632.41;;;19.74;71.02
44697;BME280;57264;47.480;19.354;2023-09-19T01:10:02;98638.84;;;19.73;71.34
44697;BME280;57264;47.480;19.354;2023-09-19T01:12:33;98631.34;;;19.75;71.22
44697;BME280;57264;47.480;19.354;2023-09-19T01:15:15;98636.38;;;19.82;70.84
44697;BME280;57264;47.480;19.354;2023-09-19T01:17:46;98632.38;;;19.79;71.25
44697;BME280;57264;47.480;19.354;2023-09-19T01:20:17;98636.31;;;19.87;71.13
44697;BME280;57264;47.480;19.354;2023-09-19T01:31:01;98626.88;;;19.71;72.05
44697;BME280;57264;47.480;19.354;2023-09-19T01:33:28;98624.19;;;19.71;72.25
44697;BME280;57264;47.480;19.354;2023-09-19T01:35:58;98628.19;;;19.73;71.97
44697;BME280;57264;47.480;19.354;2023-09-19T01:38:24;98631.69;;;19.69;72.58
44697;BME280;57264;47.480;19.354;2023-09-19T01:40:58;98626.59;;;19.72;72.19
44697;BME280;57264;47.480;19.354;2023-09-19T01:43:33;98625.00;;;19.71;72.36
44697;BME280;57264;47.480;19.354;2023-09-19T01:46:04;98619.88;;;19.80;72.31
44697;BME280;57264;47.480;19.354;2023-09-19T01:48:45;98618.28;;;19.79;72.15
44697;BME280;57264;47.480;19.354;2023-09-19T01:51:20;98618.00;;;19.80;72.25
44697;BME280;57264;47.480;19.354;2023-09-19T01:53:51;98621.22;;;19.77;72.45
44697;BME280;57264;47.480;19.354;2023-09-19T01:56:25;98618.38;;;19.69;72.79
44697;BME280;57264;47.480;19.354;2023-09-19T01:58:53;98620.19;;;19.73;72.77
44697;BME280;57264;47.480;19.354;2023-09-19T02:01:22;98619.72;;;19.66;73.11
44697;BME280;57264;47.480;19.354;2023-09-19T02:03:49;98618.94;;;19.66;73.21
44697;BME280;57264;47.480;19.354;2023-09-19T02:06:15;98622.63;;;19.70;73.14
44697;BME280;57264;47.480;19.354;2023-09-19T02:08:41;98620.75;;;19.70;73.00
44697;BME280;57264;47.480;19.354;2023-09-19T02:11:06;98618.41;;;19.63;73.32
44697;BME280;57264;47.480;19.354;2023-09-19T02:13:31;98622.53;;;19.80;73.07
44697;BME280;57264;47.480;19.354;2023-09-19T02:15:57;98627.63;;;19.76;73.01
44697;BME280;57264;47.480;19.354;2023-09-19T02:18:22;98616.94;;;19.81;73.04
44697;BME280;57264;47.480;19.354;2023-09-19T02:20:48;98621.84;;;19.69;73.54
44697;BME280;57264;47.480;19.354;2023-09-19T02:23:13;98616.22;;;19.71;73.55
44697;BME280;57264;47.480;19.354;2023-09-19T02:25:39;98615.97;;;19.67;73.59
44697;BME280;57264;47.480;19.354;2023-09-19T02:28:05;98613.06;;;19.69;73.79
44697;BME280;57264;47.480;19.354;2023-09-19T02:30:31;98613.31;;;19.67;73.79
44697;BME280;57264;47.480;19.354;2023-09-19T02:32:56;98608.56;;;19.64;73.75
44697;BME280;57264;47.480;19.354;2023-09-19T02:35:21;98608.31;;;19.60;74.01
44697;BME280;57264;47.480;19.354;2023-09-19T02:37:47;98606.50;;;19.56;74.35
44697;BME280;57264;47.480;19.354;2023-09-19T02:40:13;98597.75;;;19.50;74.60
44697;BME280;57264;47.480;19.354;2023-09-19T02:42:45;98599.59;;;19.50;74.71
44697;BME280;57264;47.480;19.354;2023-09-19T02:45:12;98607.59;;;19.50;74.55
44697;BME280;57264;47.480;19.354;2023-09-19T02:47:37;98616.06;;;19.57;74.16
44697;BME280;57264;47.480;19.354;2023-09-19T02:50:04;98603.88;;;19.51;74.74
44697;BME280;57264;47.480;19.354;2023-09-19T02:52:29;98611.88;;;19.46;75.06
44697;BME280;57264;47.480;19.354;2023-09-19T02:54:54;98609.19;;;19.51;74.50
44697;BME280;57264;47.480;19.354;2023-09-19T02:57:20;98606.56;;;19.46;74.77
44697;BME280;57264;47.480;19.354;2023-09-19T02:59:45;98600.41;;;19.50;74.94
44697;BME280;57264;47.480;19.354;2023-09-19T03:02:10;98603.91;;;19.46;75.16
44697;BME280;57264;47.480;19.354;2023-09-19T03:04:36;98602.28;;;19.50;74.67
44697;BME280;57264;47.480;19.354;2023-09-19T03:07:02;98602.91;;;19.37;75.57
44697;BME280;57264;47.480;19.354;2023-09-19T03:09:27;98597.81;;;19.45;75.05
44697;BME280;57264;47.480;19.354;2023-09-19T03:11:53;98603.47;;;19.34;75.60
44697;BME280;57264;47.480;19.354;2023-09-19T03:14:19;98603.75;;;19.27;76.01
44697;BME280;57264;47.480;19.354;2023-09-19T03:16:45;98588.53;;;19.38;75.45
44697;BME280;57264;47.480;19.354;2023-09-19T03:19:10;98594.94;;;19.32;75.58
44697;BME280;57264;47.480;19.354;2023-09-19T03:21:36;98577.66;;;19.29;75.66
44697;BME280;57264;47.480;19.354;2023-09-19T03:24:01;98587.09;;;19.11;76.55
44697;BME280;57264;47.480;19.354;2023-09-19T03:26:28;98598.81;;;19.10;76.72
44697;BME280;57264;47.480;19.354;2023-09-19T03:28:53;98593.03;;;18.98;77.19
44697;BME280;57264;47.480;19.354;2023-09-19T03:31:18;98597.84;;;18.96;77.35
44697;BME280;57264;47.480;19.354;2023-09-19T03:33:44;98598.09;;;18.95;77.55
44697;BME280;57264;47.480;19.354;2023-09-19T03:36:09;98605.84;;;18.86;77.97
44697;BME280;57264;47.480;19.354;2023-09-19T03:38:35;98606.31;;;18.98;77.64
44697;BME280;57264;47.480;19.354;2023-09-19T03:41:01;98604.75;;;18.97;77.46
44697;BME280;57264;47.480;19.354;2023-09-19T03:43:26;98598.31;;;19.03;77.25
44697;BME280;57264;47.480;19.354;2023-09-19T03:45:52;98595.97;;;18.97;77.35
44697;BME280;57264;47.480;19.354;2023-09-19T03:48:19;98594.16;;;18.87;77.89
44697;BME280;57264;47.480;19.354;2023-09-19T03:50:44;98588.59;;;18.84;78.14
44697;BME280;57264;47.480;19.354;2023-09-19T03:53:10;98599.00;;;18.80;78.28
44697;BME280;57264;47.480;19.354;2023-09-19T03:55:35;98597.63;;;18.83;78.16
44697;BME280;57264;47.480;19.354;2023-09-19T03:58:01;98592.63;;;18.81;78.23
44697;BME280;57264;47.480;19.354;2023-09-19T04:00:26;98604.56;;;18.79;78.11
44697;BME280;57264;47.480;19.354;2023-09-19T04:02:52;98601.19;;;18.68;78.79
44697;BME280;57264;47.480;19.354;2023-09-19T04:05:18;98616.66;;;18.56;79.29
44697;BME280;57264;47.480;19.354;2023-09-19T04:07:43;98620.09;;;18.46;79.94
44697;BME280;57264;47.480;19.354;2023-09-19T04:10:09;98607.63;;;18.42;80.11
44697;BME280;57264;47.480;19.354;2023-09-19T04:12:37;98614.00;;;18.46;80.27
44697;BME280;57264;47.480;19.354;2023-09-19T04:15:03;98622.53;;;18.38;80.62
44697;BME280;57264;47.480;19.354;2023-09-19T04:17:29;98621.50;;;18.29;81.01
44697;BME280;57264;47.480;19.354;2023-09-19T04:19:54;98617.25;;;18.22;81.40
44697;BME280;57264;47.480;19.354;2023-09-19T04:22:20;98626.03;;;18.23;81.60
44697;BME280;57264;47.480;19.354;2023-09-19T04:24:45;98631.31;;;18.33;81.04
44697;BME280;57264;47.480;19.354;2023-09-19T04:27:10;98621.47;;;18.39;81.20
44697;BME280;57264;47.480;19.354;2023-09-19T04:29:39;98621.44;;;18.44;81.01
44697;BME280;57264;47.480;19.354;2023-09-19T04:32:04;98626.50;;;18.45;80.88
44697;BME280;57264;47.480;19.354;2023-09-19T04:34:30;98631.03;;;18.40;81.16
44697;BME280;57264;47.480;19.354;2023-09-19T04:36:56;98636.34;;;18.45;81.26
44697;BME280;57264;47.480;19.354;2023-09-19T04:39:23;98629.94;;;18.46;81.40
44697;BME280;57264;47.480;19.354;2023-09-19T04:41:51;98629.41;;;18.49;81.32
44697;BME280;57264;47.480;19.354;2023-09-19T04:44:16;98630.50;;;18.53;81.35
44697;BME280;57264;47.480;19.354;2023-09-19T04:46:42;98633.66;;;18.55;81.32
44697;BME280;57264;47.480;19.354;2023-09-19T04:49:07;98632.31;;;18.62;81.05
44697;BME280;57264;47.480;19.354;2023-09-19T04:51:32;98630.69;;;18.66;80.93
44697;BME280;57264;47.480;19.354;2023-09-19T04:53:59;98636.25;;;18.75;80.36
44697;BME280;57264;47.480;19.354;2023-09-19T04:56:25;98639.97;;;18.74;80.88
44697;BME280;57264;47.480;19.354;2023-09-19T04:58:50;98641.81;;;18.79;80.95
44697;BME280;57264;47.480;19.354;2023-09-19T05:01:16;98648.78;;;18.69;81.07
44697;BME280;57264;47.480;19.354;2023-09-19T05:03:41;98645.81;;;18.71;81.60
44697;BME280;57264;47.480;19.354;2023-09-19T05:06:07;98653.78;;;18.76;81.29
44697;BME280;57264;47.480;19.354;2023-09-19T05:08:32;98657.50;;;18.80;81.55
44697;BME280;57264;47.480;19.354;2023-09-19T05:10:58;98648.16;;;18.88;81.59
44697;BME280;57264;47.480;19.354;2023-09-19T05:13:24;98656.38;;;18.91;81.91
44697;BME280;57264;47.480;19.354;2023-09-19T05:15:51;98662.50;;;18.92;81.63
44697;BME280;57264;47.480;19.354;2023-09-19T05:18:16;98667.00;;;18.91;82.15
44697;BME280;57264;47.480;19.354;2023-09-19T05:20:41;98672.31;;;18.96;81.93
44697;BME280;57264;47.480;19.354;2023-09-19T05:23:07;98663.28;;;18.97;82.05
44697;BME280;57264;47.480;19.354;2023-09-19T05:25:38;98656.84;;;19.03;82.02
44697;BME280;57264;47.480;19.354;2023-09-19T05:28:08;98655.28;;;18.97;82.47
44697;BME280;57264;47.480;19.354;2023-09-19T05:30:33;98662.69;;;19.05;82.37
44697;BME280;57264;47.480;19.354;2023-09-19T05:33:01;98659.72;;;19.12;82.74
44697;BME280;57264;47.480;19.354;2023-09-19T05:35:27;98660.78;;;19.16;82.30
44697;BME280;57264;47.480;19.354;2023-09-19T05:37:53;98667.38;;;19.24;82.16
44697;BME280;57264;47.480;19.354;2023-09-19T05:40:20;98665.25;;;19.26;82.51
44697;BME280;57264;47.480;19.354;2023-09-19T05:42:45;98668.41;;;19.28;81.91
44697;BME280;57264;47.480;19.354;2023-09-19T05:45:11;98668.66;;;19.31;83.08
44697;BME280;57264;47.480;19.354;2023-09-19T05:47:44;98667.00;;;19.40;83.19
44697;BME280;57264;47.480;19.354;2023-09-19T05:50:11;98658.50;;;19.38;82.42
44697;BME280;57264;47.480;19.354;2023-09-19T05:52:36;98664.63;;;19.39;82.09
44697;BME280;57264;47.480;19.354;2023-09-19T05:55:06;98664.91;;;19.37;82.31
44697;BME280;57264;47.480;19.354;2023-09-19T05:57:33;98665.69;;;19.43;82.00
44697;BME280;57264;47.480;19.354;2023-09-19T05:59:58;98673.38;;;19.49;81.57
44697;BME280;57264;47.480;19.354;2023-09-19T06:02:23;98678.50;;;19.31;82.08
44697;BME280;57264;47.480;19.354;2023-09-19T06:04:52;98685.44;;;19.27;82.84
44697;BME280;57264;47.480;19.354;2023-09-19T06:07:18;98697.56;;;18.99;84.06
44697;BME280;57264;47.480;19.354;2023-09-19T06:09:43;98698.13;;;18.96;84.91
44697;BME280;57264;47.480;19.354;2023-09-19T06:12:09;98696.47;;;19.05;84.48
44697;BME280;57264;47.480;19.354;2023-09-19T06:14:34;98703.28;;;19.26;83.84
44697;BME280;57264;47.480;19.354;2023-09-19T06:16:59;98705.34;;;19.34;83.55
44697;BME280;57264;47.480;19.354;2023-09-19T06:19:25;98697.78;;;19.07;84.64
44697;BME280;57264;47.480;19.354;2023-09-19T06:21:52;98699.16;;;19.05;85.25
44697;BME280;57264;47.480;19.354;2023-09-19T06:24:19;98696.31;;;18.81;85.52
44697;BME280;57264;47.480;19.354;2023-09-19T06:26:44;98696.84;;;18.78;86.21
44697;BME280;57264;47.480;19.354;2023-09-19T06:29:10;98697.06;;;18.87;85.58
44697;BME280;57264;47.480;19.354;2023-09-19T06:31:35;98707.53;;;18.68;85.95
44697;BME280;57264;47.480;19.354;2023-09-19T06:34:01;98708.56;;;18.72;85.95
44697;BME280;57264;47.480;19.354;2023-09-19T06:36:28;98711.78;;;18.69;86.04
44697;BME280;57264;47.480;19.354;2023-09-19T06:38:53;98713.41;;;18.45;86.65
44697;BME280;57264;47.480;19.354;2023-09-19T06:41:19;98720.56;;;18.34;86.91
44697;BME280;57264;47.480;19.354;2023-09-19T06:43:46;98721.13;;;18.26;87.49
44697;BME280;57264;47.480;19.354;2023-09-19T06:46:11;98721.91;;;18.27;87.83
44697;BME280;57264;47.480;19.354;2023-09-19T06:48:38;98726.72;;;18.19;88.72
44697;BME280;57264;47.480;19.354;2023-09-19T06:51:03;98734.94;;;18.18;88.75
44697;BME280;57264;47.480;19.354;2023-09-19T06:53:33;98738.94;;;18.00;89.54
44697;BME280;57264;47.480;19.354;2023-09-19T06:56:00;98747.44;;;17.87;90.99
44697;BME280;57264;47.480;19.354;2023-09-19T06:58:26;98747.94;;;17.79;93.44
44697;BME280;57264;47.480;19.354;2023-09-19T07:00:51;98748.22;;;17.72;95.07
44697;BME280;57264;47.480;19.354;2023-09-19T07:03:16;98747.38;;;17.62;96.49
44697;BME280;57264;47.480;19.354;2023-09-19T07:05:47;98759.50;;;17.38;98.34
44697;BME280;57264;47.480;19.354;2023-09-19T07:08:12;98754.22;;;17.43;99.35
44697;BME280;57264;47.480;19.354;2023-09-19T07:10:38;98756.84;;;17.38;99.73
44697;BME280;57264;47.480;19.354;2023-09-19T07:13:12;98766.69;;;17.37;100.00
44697;BME280;57264;47.480;19.354;2023-09-19T07:15:38;98765.59;;;17.38;100.00
44697;BME280;57264;47.480;19.354;2023-09-19T07:18:05;98775.94;;;17.35;100.00
44697;BME280;57264;47.480;19.354;2023-09-19T07:20:31;98775.44;;;17.33;100.00
44697;BME280;57264;47.480;19.354;2023-09-19T07:22:57;98782.03;;;17.25;100.00
44697;BME280;57264;47.480;19.354;2023-09-19T07:25:25;98788.91;;;17.21;100.00
44697;BME280;57264;47.480;19.354;2023-09-19T07:27:50;98796.63;;;17.27;100.00
44697;BME280;57264;47.480;19.354;2023-09-19T07:30:16;98792.81;;;17.08;100.00
44697;BME280;57264;47.480;19.354;2023-09-19T07:32:41;98797.59;;;17.11;100.00
44697;BME280;57264;47.480;19.354;2023-09-19T07:35:07;98804.16;;;16.99;100.00
44697;BME280;57264;47.480;19.354;2023-09-19T07:37:32;98808.38;;;16.95;100.00
44697;BME280;57264;47.480;19.354;2023-09-19T07:40:04;98807.06;;;16.97;100.00
44697;BME280;57264;47.480;19.354;2023-09-19T07:42:34;98813.25;;;17.08;100.00
44697;BME280;57264;47.480;19.354;2023-09-19T07:45:00;98817.78;;;17.17;100.00
44697;BME280;57264;47.480;19.354;2023-09-19T07:47:26;98819.56;;;16.97;100.00
44697;BME280;57264;47.480;19.354;2023-09-19T07:49:52;98821.47;;;17.11;100.00
44697;BME280;57264;47.480;19.354;2023-09-19T07:52:18;98819.06;;;17.10;100.00
44697;BME280;57264;47.480;19.354;2023-09-19T07:54:44;98823.91;;;17.23;100.00
44697;BME280;57264;47.480;19.354;2023-09-19T07:57:10;98825.00;;;17.27;100.00
44697;BME280;57264;47.480;19.354;2023-09-19T07:59:36;98831.19;;;17.48;100.00
44697;BME280;57264;47.480;19.354;2023-09-19T08:02:03;98824.72;;;17.23;100.00
44697;BME280;57264;47.480;19.354;2023-09-19T08:04:29;98826.13;;;17.41;100.00
44697;BME280;57264;47.480;19.354;2023-09-19T08:06:58;98823.88;;;17.75;100.00
44697;BME280;57264;47.480;19.354;2023-09-19T08:09:26;98827.50;;;17.49;100.00
44697;BME280;57264;47.480;19.354;2023-09-19T08:11:51;98827.31;;;17.75;100.00
44697;BME280;57264;47.480;19.354;2023-09-19T08:14:16;98829.63;;;17.57;100.00
44697;BME280;57264;47.480;19.354;2023-09-19T08:16:42;98832.66;;;17.86;100.00
44697;BME280;57264;47.480;19.354;2023-09-19T08:19:09;98835.00;;;17.67;100.00
44697;BME280;57264;47.480;19.354;2023-09-19T08:21:35;98822.56;;;17.72;100.00
44697;BME280;57264;47.480;19.354;2023-09-19T08:24:01;98835.06;;;17.87;100.00
44697;BME280;57264;47.480;19.354;2023-09-19T08:26:29;98829.25;;;18.15;100.00
44697;BME280;57264;47.480;19.354;2023-09-19T08:28:55;98839.34;;;18.08;100.00
44697;BME280;57264;47.480;19.354;2023-09-19T08:31:20;98845.72;;;18.12;100.00
44697;BME280;57264;47.480;19.354;2023-09-19T08:33:46;98853.44;;;18.09;100.00
44697;BME280;57264;47.480;19.354;2023-09-19T08:36:14;98860.03;;;18.06;100.00
44697;BME280;57264;47.480;19.354;2023-09-19T08:38:40;98861.63;;;17.92;100.00
44697;BME280;57264;47.480;19.354;2023-09-19T08:41:06;98863.44;;;17.82;100.00
44697;BME280;57264;47.480;19.354;2023-09-19T08:43:33;98863.78;;;18.00;100.00
44697;BME280;57264;47.480;19.354;2023-09-19T08:48:31;98861.63;;;17.92;100.00
44697;BME280;57264;47.480;19.354;2023-09-19T08:56:12;98880.94;;;17.72;100.00
44697;BME280;57264;47.480;19.354;2023-09-19T08:58:45;98882.06;;;17.92;100.00
44697;BME280;57264;47.480;19.354;2023-09-19T09:01:13;98892.41;;;17.83;100.00
44697;BME280;57264;47.480;19.354;2023-09-19T09:03:40;98892.16;;;17.95;99.60
44697;BME280;57264;47.480;19.354;2023-09-19T09:06:07;98899.66;;;17.51;100.00
44697;BME280;57264;47.480;19.354;2023-09-19T09:08:33;98910.72;;;17.38;100.00
44697;BME280;57264;47.480;19.354;2023-09-19T09:11:01;98915.13;;;17.59;100.00
44697;BME280;57264;47.480;19.354;2023-09-19T09:13:28;98909.22;;;17.52;100.00
44697;BME280;57264;47.480;19.354;2023-09-19T09:15:53;98915.59;;;17.51;100.00
44697;BME280;57264;47.480;19.354;2023-09-19T09:18:19;98915.34;;;17.52;100.00
44697;BME280;57264;47.480;19.354;2023-09-19T09:20:45;98915.13;;;17.59;100.00
44697;BME280;57264;47.480;19.354;2023-09-19T09:23:12;98911.72;;;17.73;100.00
44697;BME280;57264;47.480;19.354;2023-09-19T09:25:52;98909.34;;;17.72;100.00
44697;BME280;57264;47.480;19.354;2023-09-19T09:28:22;98908.66;;;18.07;100.00
44697;BME280;57264;47.480;19.354;2023-09-19T09:30:48;98905.25;;;18.16;99.15
44697;BME280;57264;47.480;19.354;2023-09-19T09:33:14;98891.41;;;18.14;99.19
44697;BME280;57264;47.480;19.354;2023-09-19T09:35:53;98891.44;;;18.30;98.33
44697;BME280;57264;47.480;19.354;2023-09-19T09:38:22;98880.81;;;18.40;98.36
44697;BME280;57264;47.480;19.354;2023-09-19T09:40:56;98864.63;;;18.41;97.23
44697;BME280;57264;47.480;19.354;2023-09-19T09:43:26;98835.69;;;18.65;95.34
44697;BME280;57264;47.480;19.354;2023-09-19T09:46:09;98832.72;;;18.92;94.30
44697;BME280;57264;47.480;19.354;2023-09-19T09:51:40;98830.63;;;19.63;89.60
44697;BME280;57264;47.480;19.354;2023-09-19T09:54:16;98836.75;;;19.58;89.79
44697;BME280;57264;47.480;19.354;2023-09-19T09:56:52;98838.97;;;19.36;89.80
44697;BME280;57264;47.480;19.354;2023-09-19T09:59:18;98847.59;;;19.77;89.69
44697;BME280;57264;47.480;19.354;2023-09-19T10:01:47;98848.88;;;19.15;90.57
44697;BME280;57264;47.480;19.354;2023-09-19T10:04:26;98861.88;;;19.22;90.44
44697;BME280;57264;47.480;19.354;2023-09-19T10:06:54;98873.56;;;19.46;90.59
44697;BME280;57264;47.480;19.354;2023-09-19T10:09:20;98878.69;;;19.12;91.94
44697;BME280;57264;47.480;19.354;2023-09-19T10:11:59;98876.13;;;19.72;91.46
44697;BME280;57264;47.480;19.354;2023-09-19T10:14:28;98891.13;;;20.06;91.26
44697;BME280;57264;47.480;19.354;2023-09-19T10:16:56;98885.50;;;19.54;90.49
44697;BME280;57264;47.480;19.354;2023-09-19T10:22:13;98899.09;;;20.12;87.91
44697;BME280;57264;47.480;19.354;2023-09-19T10:24:46;98898.13;;;19.92;88.05
44697;BME280;57264;47.480;19.354;2023-09-19T10:27:12;98894.16;;;19.90;89.24
44697;BME280;57264;47.480;19.354;2023-09-19T10:29:38;98893.72;;;19.62;88.23
44697;BME280;57264;47.480;19.354;2023-09-19T10:32:04;98879.44;;;19.28;88.43
44697;BME280;57264;47.480;19.354;2023-09-19T10:34:32;98885.72;;;20.22;85.83
44697;BME280;57264;47.480;19.354;2023-09-19T10:37:00;98895.69;;;20.01;83.91
44697;BME280;57264;47.480;19.354;2023-09-19T10:39:32;98895.72;;;19.91;84.51
44697;BME280;57264;47.480;19.354;2023-09-19T10:42:01;98893.13;;;19.81;84.36
44697;BME280;57264;47.480;19.354;2023-09-19T10:44:32;98890.28;;;20.16;84.52
44697;BME280;57264;47.480;19.354;2023-09-19T10:46:58;98896.53;;;19.91;83.52
44697;BME280;57264;47.480;19.354;2023-09-19T10:49:25;98891.75;;;19.88;83.33
44697;BME280;57264;47.480;19.354;2023-09-19T10:51:52;98900.94;;;20.11;83.00
44697;BME280;57264;47.480;19.354;2023-09-19T10:54:24;98902.03;;;19.51;83.67
44697;BME280;57264;47.480;19.354;2023-09-19T10:56:52;98920.31;;;19.78;85.40
44697;BME280;57264;47.480;19.354;2023-09-19T10:59:20;98917.72;;;19.57;85.13
44697;BME280;57264;47.480;19.354;2023-09-19T11:01:53;98921.72;;;19.50;84.33
44697;BME280;57264;47.480;19.354;2023-09-19T11:09:48;98918.19;;;19.75;82.28
44697;BME280;57264;47.480;19.354;2023-09-19T11:15:06;98923.81;;;19.68;83.12
44697;BME280;57264;47.480;19.354;2023-09-19T11:17:37;98930.91;;;19.93;81.89
44697;BME280;57264;47.480;19.354;2023-09-19T11:30:47;98926.19;;;20.24;79.22
44697;BME280;57264;47.480;19.354;2023-09-19T11:33:23;98927.81;;;20.64;78.54
44697;BME280;57264;47.480;19.354;2023-09-19T11:36:00;98937.84;;;20.82;78.30
44697;BME280;57264;47.480;19.354;2023-09-19T11:41:55;98923.22;;;21.03;75.97
44697;BME280;57264;47.480;19.354;2023-09-19T11:46:25;98931.47;;;21.35;75.73
44697;BME280;57264;47.480;19.354;2023-09-19T11:48:51;98936.25;;;21.38;73.50
44697;BME280;57264;47.480;19.354;2023-09-19T11:51:18;98925.25;;;21.69;73.52
44697;BME280;57264;47.480;19.354;2023-09-19T11:53:56;98924.50;;;21.39;73.78
44697;BME280;57264;47.480;19.354;2023-09-19T11:56:24;98919.75;;;22.03;70.30
44697;BME280;57264;47.480;19.354;2023-09-19T11:58:55;98930.13;;;21.85;69.49
44697;BME280;57264;47.480;19.354;2023-09-19T12:01:25;98918.19;;;22.02;68.64
44697;BME280;57264;47.480;19.354;2023-09-19T12:03:55;98915.53;;;21.78;68.75
44697;BME280;57264;47.480;19.354;2023-09-19T12:06:23;98914.97;;;21.33;69.49
44697;BME280;57264;47.480;19.354;2023-09-19T12:08:48;98905.63;;;22.21;67.15
44697;BME280;57264;47.480;19.354;2023-09-19T12:11:15;98904.78;;;21.59;68.66
44697;BME280;57264;47.480;19.354;2023-09-19T12:13:44;98915.53;;;21.01;70.99
44697;BME280;57264;47.480;19.354;2023-09-19T12:18:40;98911.31;;;21.48;69.30
44697;BME280;57264;47.480;19.354;2023-09-19T12:21:08;98910.47;;;21.76;68.43
44697;BME280;57264;47.480;19.354;2023-09-19T12:23:37;98907.00;;;22.37;66.47
44697;BME280;57264;47.480;19.354;2023-09-19T12:26:06;98906.56;;;21.45;68.19
44697;BME280;57264;47.480;19.354;2023-09-19T12:28:40;98910.69;;;21.80;68.18
44697;BME280;57264;47.480;19.354;2023-09-19T12:31:07;98912.84;;;22.02;67.47
44697;BME280;57264;47.480;19.354;2023-09-19T12:33:33;98908.69;;;21.90;67.45
44697;BME280;57264;47.480;19.354;2023-09-19T12:35:59;98912.25;;;22.23;65.58
44697;BME280;57264;47.480;19.354;2023-09-19T12:38:27;98926.78;;;22.36;64.42
44697;BME280;57264;47.480;19.354;2023-09-19T12:41:01;98933.09;;;22.45;64.31
44697;BME280;57264;47.480;19.354;2023-09-19T12:43:30;98928.00;;;22.81;63.44
44697;BME280;57264;47.480;19.354;2023-09-19T12:45:58;98934.28;;;22.15;64.73
44697;BME280;57264;47.480;19.354;2023-09-19T12:48:25;98929.03;;;22.29;64.41
44697;BME280;57264;47.480;19.354;2023-09-19T12:53:39;98919.44;;;22.47;63.96
44697;BME280;57264;47.480;19.354;2023-09-19T12:56:12;98920.13;;;22.15;65.21
44697;BME280;57264;47.480;19.354;2023-09-19T13:01:28;98930.69;;;22.25;65.97
44697;BME280;57264;47.480;19.354;2023-09-19T13:06:40;98917.81;;;22.27;65.53
44697;BME280;57264;47.480;19.354;2023-09-19T13:09:08;98918.19;;;22.39;65.68
44697;BME280;57264;47.480;19.354;2023-09-19T13:11:37;98917.47;;;21.91;66.34
44697;BME280;57264;47.480;19.354;2023-09-19T13:25:06;98928.19;;;22.33;62.62
44697;BME280;57264;47.480;19.354;2023-09-19T13:27:32;98928.53;;;22.46;62.85
44697;BME280;57264;47.480;19.354;2023-09-19T13:29:58;98931.50;;;22.63;62.28
44697;BME280;57264;47.480;19.354;2023-09-19T13:32:23;98930.19;;;22.23;64.11
44697;BME280;57264;47.480;19.354;2023-09-19T13:34:48;98937.72;;;22.58;63.54
44697;BME280;57264;47.480;19.354;2023-09-19T13:37:14;98932.25;;;22.63;63.24
44697;BME280;57264;47.480;19.354;2023-09-19T13:39:41;98936.31;;;22.23;64.18
44697;BME280;57264;47.480;19.354;2023-09-19T13:42:12;98945.13;;;22.05;64.60
44697;BME280;57264;47.480;19.354;2023-09-19T13:44:38;98942.41;;;21.86;65.52
44697;BME280;57264;47.480;19.354;2023-09-19T13:47:03;98936.53;;;22.27;63.70
44697;BME280;57264;47.480;19.354;2023-09-19T13:49:34;98940.75;;;22.70;62.85
44697;BME280;57264;47.480;19.354;2023-09-19T13:52:00;98943.78;;;22.45;63.36
44697;BME280;57264;47.480;19.354;2023-09-19T13:54:28;98937.69;;;22.77;63.29
44697;BME280;57264;47.480;19.354;2023-09-19T13:56:55;98958.03;;;22.22;64.41